sensor_id;sensor_type;location;lat;lon;timestamp;pressure;altitude;pressure_sealevel;temperature;humidity
64844;BME280;51310;52.198;5.422;2022-07-23T00:00:21;101743.50;;;14.12;100.00
64844;BME280;51310;52.198;5.422;2022-07-23T00:02:47;101743.19;;;14.18;100.00
64844;BME280;51310;52.198;5.422;2022-07-23T00:05:13;101738.28;;;14.30;100.00
64844;BME280;51310;52.198;5.422;2022-07-23T00:07:39;101730.53;;;14.21;100.00
64844;BME280;51310;52.198;5.422;2022-07-23T00:10:06;101730.22;;;14.18;100.00
64844;BME280;51310;52.198;5.422;2022-07-23T00:12:32;101724.44;;;14.12;100.00
64844;BME280;51310;52.198;5.422;2022-07-23T00:14:59;101731.59;;;14.14;100.00
64844;BME280;51310;52.198;5.422;2022-07-23T00:17:25;101732.25;;;13.94;100.00
64844;BME280;51310;52.198;5.422;2022-07-23T00:19:51;101724.81;;;13.98;100.00
64844;BME280;51310;52.198;5.422;2022-07-23T00:22:16;101722.22;;;13.98;100.00
64844;BME280;51310;52.198;5.422;2022-07-23T00:24:42;101716.28;;;13.99;100.00
64844;BME280;51310;52.198;5.422;2022-07-23T00:27:08;101719.47;;;13.96;100.00
64844;BME280;51310;52.198;5.422;2022-07-23T00:29:34;101717.50;;;13.93;100.00
64844;BME280;51310;52.198;5.422;2022-07-23T00:32:00;101717.78;;;13.97;100.00
64844;BME280;51310;52.198;5.422;2022-07-23T00:34:26;101715.81;;;14.03;100.00
64844;BME280;51310;52.198;5.422;2022-07-23T00:36:52;101716.44;;;14.00;100.00
64844;BME280;51310;52.198;5.422;2022-07-23T00:39:20;101718.69;;;13.97;100.00
64844;BME280;51310;52.198;5.422;2022-07-23T00:41:50;101719.16;;;13.93;100.00
64844;BME280;51310;52.198;5.422;2022-07-23T00:44:21;101715.81;;;14.03;100.00
64844;BME280;51310;52.198;5.422;2022-07-23T00:46:56;101717.06;;;13.89;100.00
64844;BME280;51310;52.198;5.422;2022-07-23T00:49:26;101707.03;;;13.83;100.00
64844;BME280;51310;52.198;5.422;2022-07-23T00:51:54;101705.94;;;13.90;100.00
64844;BME280;51310;52.198;5.422;2022-07-23T00:54:25;101707.63;;;13.89;100.00
64844;BME280;51310;52.198;5.422;2022-07-23T00:56:52;101702.75;;;13.84;100.00
64844;BME280;51310;52.198;5.422;2022-07-23T00:59:18;101704.91;;;13.79;100.00
64844;BME280;51310;52.198;5.422;2022-07-23T01:01:44;101702.31;;;13.79;100.00
64844;BME280;51310;52.198;5.422;2022-07-23T01:04:12;101703.53;;;13.74;100.00
64844;BME280;51310;52.198;5.422;2022-07-23T01:06:38;101692.56;;;13.77;100.00
64844;BME280;51310;52.198;5.422;2022-07-23T01:09:06;101694.84;;;13.65;100.00
64844;BME280;51310;52.198;5.422;2022-07-23T01:11:35;101698.97;;;13.63;100.00
64844;BME280;51310;52.198;5.422;2022-07-23T01:14:15;101688.78;;;13.73;100.00
64844;BME280;51310;52.198;5.422;2022-07-23T01:16:44;101686.19;;;13.73;100.00
64844;BME280;51310;52.198;5.422;2022-07-23T01:19:13;101691.97;;;13.70;100.00
64844;BME280;51310;52.198;5.422;2022-07-23T01:21:42;101695.19;;;13.68;100.00
64844;BME280;51310;52.198;5.422;2022-07-23T01:24:11;101686.81;;;13.62;100.00
64844;BME280;51310;52.198;5.422;2022-07-23T01:26:40;101696.72;;;13.48;100.00
64844;BME280;51310;52.198;5.422;2022-07-23T01:29:08;101697.91;;;13.43;100.00
64844;BME280;51310;52.198;5.422;2022-07-23T01:31:34;101701.44;;;13.52;100.00
64844;BME280;51310;52.198;5.422;2022-07-23T01:34:00;101689.56;;;13.54;100.00
64844;BME280;51310;52.198;5.422;2022-07-23T01:36:26;101689.88;;;13.49;100.00
64844;BME280;51310;52.198;5.422;2022-07-23T01:38:53;101688.97;;;13.48;100.00
64844;BME280;51310;52.198;5.422;2022-07-23T01:41:19;101686.84;;;13.36;100.00
64844;BME280;51310;52.198;5.422;2022-07-23T01:43:45;101691.84;;;13.34;100.00
64844;BME280;51310;52.198;5.422;2022-07-23T01:46:12;101682.91;;;13.30;100.00
64844;BME280;51310;52.198;5.422;2022-07-23T01:48:38;101683.63;;;13.29;100.00
64844;BME280;51310;52.198;5.422;2022-07-23T01:51:04;101676.34;;;13.34;100.00
64844;BME280;51310;52.198;5.422;2022-07-23T01:53:30;101676.94;;;13.31;100.00
64844;BME280;51310;52.198;5.422;2022-07-23T01:55:58;101686.81;;;13.27;100.00
64844;BME280;51310;52.198;5.422;2022-07-23T01:58:25;101678.28;;;13.19;100.00
64844;BME280;51310;52.198;5.422;2022-07-23T02:00:52;101686.47;;;13.15;100.00
64844;BME280;51310;52.198;5.422;2022-07-23T02:03:19;101676.47;;;13.18;100.00
64844;BME280;51310;52.198;5.422;2022-07-23T02:05:45;101676.00;;;13.22;100.00
64844;BME280;51310;52.198;5.422;2022-07-23T02:08:11;101687.41;;;13.07;100.00
64844;BME280;51310;52.198;5.422;2022-07-23T02:10:37;101683.44;;;13.10;100.00
64844;BME280;51310;52.198;5.422;2022-07-23T02:13:03;101690.00;;;13.07;100.00
64844;BME280;51310;52.198;5.422;2022-07-23T02:15:29;101690.56;;;13.04;100.00
64844;BME280;51310;52.198;5.422;2022-07-23T02:17:55;101686.91;;;13.02;100.00
64844;BME280;51310;52.198;5.422;2022-07-23T02:20:21;101679.03;;;13.01;100.00
64844;BME280;51310;52.198;5.422;2022-07-23T02:22:48;101677.81;;;13.06;100.00
64844;BME280;51310;52.198;5.422;2022-07-23T02:25:14;101678.72;;;12.98;100.00
64844;BME280;51310;52.198;5.422;2022-07-23T02:27:40;101685.28;;;13.11;100.00
64844;BME280;51310;52.198;5.422;2022-07-23T02:30:07;101678.44;;;13.12;100.00
64844;BME280;51310;52.198;5.422;2022-07-23T02:32:33;101683.00;;;13.14;100.00
64844;BME280;51310;52.198;5.422;2022-07-23T02:35:00;101686.47;;;13.15;100.00
64844;BME280;51310;52.198;5.422;2022-07-23T02:37:26;101684.81;;;13.07;100.00
64844;BME280;51310;52.198;5.422;2022-07-23T02:39:51;101688.13;;;12.97;100.00
64844;BME280;51310;52.198;5.422;2022-07-23T02:42:17;101679.16;;;12.93;100.00
64844;BME280;51310;52.198;5.422;2022-07-23T02:44:44;101679.91;;;12.84;100.00
64844;BME280;51310;52.198;5.422;2022-07-23T02:47:10;101682.50;;;12.84;100.00
64844;BME280;51310;52.198;5.422;2022-07-23T02:49:36;101689.63;;;12.78;100.00
64844;BME280;51310;52.198;5.422;2022-07-23T02:52:02;101685.13;;;13.01;100.00
64844;BME280;51310;52.198;5.422;2022-07-23T02:54:28;101698.19;;;13.11;100.00
64844;BME280;51310;52.198;5.422;2022-07-23T02:56:54;101700.91;;;12.96;100.00
64844;BME280;51310;52.198;5.422;2022-07-23T02:59:20;101698.16;;;12.77;100.00
64844;BME280;51310;52.198;5.422;2022-07-23T03:01:46;101706.47;;;12.74;100.00
64844;BME280;51310;52.198;5.422;2022-07-23T03:04:12;101705.91;;;12.77;100.00
64844;BME280;51310;52.198;5.422;2022-07-23T03:06:38;101696.44;;;12.68;100.00
64844;BME280;51310;52.198;5.422;2022-07-23T03:09:05;101703.47;;;12.96;100.00
64844;BME280;51310;52.198;5.422;2022-07-23T03:11:31;101702.75;;;13.14;100.00
64844;BME280;51310;52.198;5.422;2022-07-23T03:13:57;101713.53;;;13.10;100.00
64844;BME280;51310;52.198;5.422;2022-07-23T03:16:23;101706.69;;;13.02;100.00
64844;BME280;51310;52.198;5.422;2022-07-23T03:18:49;101713.94;;;12.80;100.00
64844;BME280;51310;52.198;5.422;2022-07-23T03:21:14;101713.03;;;12.70;100.00
64844;BME280;51310;52.198;5.422;2022-07-23T03:23:41;101716.00;;;12.58;100.00
64844;BME280;51310;52.198;5.422;2022-07-23T03:26:06;101720.38;;;12.50;100.00
64844;BME280;51310;52.198;5.422;2022-07-23T03:28:32;101715.41;;;12.60;100.00
64844;BME280;51310;52.198;5.422;2022-07-23T03:30:58;101717.16;;;12.44;100.00
64844;BME280;51310;52.198;5.422;2022-07-23T03:33:24;101714.88;;;12.38;100.00
64844;BME280;51310;52.198;5.422;2022-07-23T03:35:50;101714.28;;;12.41;100.00
64844;BME280;51310;52.198;5.422;2022-07-23T03:38:16;101711.38;;;12.38;100.00
64844;BME280;51310;52.198;5.422;2022-07-23T03:40:42;101723.22;;;12.36;100.00
64844;BME280;51310;52.198;5.422;2022-07-23T03:43:08;101724.19;;;12.54;100.00
64844;BME280;51310;52.198;5.422;2022-07-23T03:45:34;101726.03;;;12.63;100.00
64844;BME280;51310;52.198;5.422;2022-07-23T03:48:00;101715.38;;;12.51;100.00
64844;BME280;51310;52.198;5.422;2022-07-23T03:50:26;101716.41;;;12.45;100.00
64844;BME280;51310;52.198;5.422;2022-07-23T03:52:52;101713.69;;;12.52;100.00
64844;BME280;51310;52.198;5.422;2022-07-23T03:55:18;101714.91;;;12.47;100.00
64844;BME280;51310;52.198;5.422;2022-07-23T03:57:44;101712.75;;;12.43;100.00
64844;BME280;51310;52.198;5.422;2022-07-23T04:00:11;101708.22;;;12.40;100.00
64844;BME280;51310;52.198;5.422;2022-07-23T04:02:38;101703.19;;;12.42;100.00
64844;BME280;51310;52.198;5.422;2022-07-23T04:05:06;101702.28;;;12.41;100.00
64844;BME280;51310;52.198;5.422;2022-07-23T04:07:32;101702.09;;;12.31;100.00
64844;BME280;51310;52.198;5.422;2022-07-23T04:09:58;101695.25;;;12.31;100.00
64844;BME280;51310;52.198;5.422;2022-07-23T04:12:24;101693.16;;;12.36;100.00
64844;BME280;51310;52.198;5.422;2022-07-23T04:14:50;101702.44;;;12.43;100.00
64844;BME280;51310;52.198;5.422;2022-07-23T04:17:16;101696.66;;;12.45;100.00
64844;BME280;51310;52.198;5.422;2022-07-23T04:19:42;101699.25;;;12.45;100.00
64844;BME280;51310;52.198;5.422;2022-07-23T04:22:12;101703.38;;;12.52;100.00
64844;BME280;51310;52.198;5.422;2022-07-23T04:24:39;101699.59;;;12.48;100.00
64844;BME280;51310;52.198;5.422;2022-07-23T04:27:05;101692.59;;;12.56;100.00
64844;BME280;51310;52.198;5.422;2022-07-23T04:29:31;101708.28;;;12.58;100.00
64844;BME280;51310;52.198;5.422;2022-07-23T04:31:57;101706.88;;;12.52;100.00
64844;BME280;51310;52.198;5.422;2022-07-23T04:34:23;101711.16;;;12.61;100.00
64844;BME280;51310;52.198;5.422;2022-07-23T04:36:51;101711.47;;;12.64;100.00
64844;BME280;51310;52.198;5.422;2022-07-23T04:39:16;101703.44;;;12.69;100.00
64844;BME280;51310;52.198;5.422;2022-07-23T04:41:42;101697.66;;;12.72;100.00
64844;BME280;51310;52.198;5.422;2022-07-23T04:44:08;101697.53;;;12.79;100.00
64844;BME280;51310;52.198;5.422;2022-07-23T04:46:34;101708.34;;;12.84;100.00
64844;BME280;51310;52.198;5.422;2022-07-23T04:49:00;101718.53;;;12.91;100.00
64844;BME280;51310;52.198;5.422;2022-07-23T04:51:26;101719.94;;;13.13;100.00
64844;BME280;51310;52.198;5.422;2022-07-23T04:53:52;101706.47;;;13.33;100.00
64844;BME280;51310;52.198;5.422;2022-07-23T04:56:18;101705.72;;;13.52;100.00
64844;BME280;51310;52.198;5.422;2022-07-23T04:58:43;101714.34;;;13.70;100.00
64844;BME280;51310;52.198;5.422;2022-07-23T05:01:09;101712.03;;;13.90;100.00
64844;BME280;51310;52.198;5.422;2022-07-23T05:03:35;101711.13;;;13.90;100.00
64844;BME280;51310;52.198;5.422;2022-07-23T05:06:01;101720.69;;;14.00;100.00
64844;BME280;51310;52.198;5.422;2022-07-23T05:08:28;101718.50;;;14.22;100.00
64844;BME280;51310;52.198;5.422;2022-07-23T05:10:54;101719.88;;;14.54;100.00
64844;BME280;51310;52.198;5.422;2022-07-23T05:13:20;101719.41;;;14.95;100.00
64844;BME280;51310;52.198;5.422;2022-07-23T05:15:46;101717.25;;;15.37;100.00
64844;BME280;51310;52.198;5.422;2022-07-23T05:18:13;101719.19;;;15.59;98.09
64844;BME280;51310;52.198;5.422;2022-07-23T05:20:39;101718.38;;;15.88;95.37
64844;BME280;51310;52.198;5.422;2022-07-23T05:23:05;101723.47;;;15.96;95.53
64844;BME280;51310;52.198;5.422;2022-07-23T05:25:30;101727.56;;;15.84;95.05
64844;BME280;51310;52.198;5.422;2022-07-23T05:27:56;101731.72;;;16.22;94.22
64844;BME280;51310;52.198;5.422;2022-07-23T05:30:22;101731.00;;;16.43;92.77
64844;BME280;51310;52.198;5.422;2022-07-23T05:32:48;101725.72;;;16.52;90.07
64844;BME280;51310;52.198;5.422;2022-07-23T05:35:14;101732.78;;;16.63;88.99
64844;BME280;51310;52.198;5.422;2022-07-23T05:37:40;101736.00;;;16.60;90.17
64844;BME280;51310;52.198;5.422;2022-07-23T05:40:09;101732.66;;;16.32;91.40
64844;BME280;51310;52.198;5.422;2022-07-23T05:42:40;101726.38;;;16.10;92.64
64844;BME280;51310;52.198;5.422;2022-07-23T05:45:08;101733.72;;;16.24;91.75
64844;BME280;51310;52.198;5.422;2022-07-23T05:47:48;101745.75;;;16.73;90.16
64844;BME280;51310;52.198;5.422;2022-07-23T05:50:15;101737.19;;;16.74;89.13
64844;BME280;51310;52.198;5.422;2022-07-23T05:52:42;101743.25;;;17.04;88.11
64844;BME280;51310;52.198;5.422;2022-07-23T05:55:10;101749.72;;;16.99;86.67
64844;BME280;51310;52.198;5.422;2022-07-23T05:57:38;101749.84;;;16.80;87.12
64844;BME280;51310;52.198;5.422;2022-07-23T06:00:08;101748.44;;;17.04;86.67
64844;BME280;51310;52.198;5.422;2022-07-23T06:02:35;101749.56;;;17.59;82.41
64844;BME280;51310;52.198;5.422;2022-07-23T06:05:00;101747.50;;;17.45;83.30
64844;BME280;51310;52.198;5.422;2022-07-23T06:07:26;101750.78;;;17.11;86.16
64844;BME280;51310;52.198;5.422;2022-07-23T06:09:52;101742.06;;;17.41;85.00
64844;BME280;51310;52.198;5.422;2022-07-23T06:12:18;101753.97;;;17.70;83.46
64844;BME280;51310;52.198;5.422;2022-07-23T06:14:44;101761.03;;;17.51;83.59
64844;BME280;51310;52.198;5.422;2022-07-23T06:17:10;101750.59;;;17.71;81.19
64844;BME280;51310;52.198;5.422;2022-07-23T06:19:36;101743.00;;;17.95;78.33
64844;BME280;51310;52.198;5.422;2022-07-23T06:22:02;101749.69;;;17.60;80.02
64844;BME280;51310;52.198;5.422;2022-07-23T06:24:28;101746.59;;;18.07;74.21
64844;BME280;51310;52.198;5.422;2022-07-23T06:26:54;101744.59;;;17.82;74.86
64844;BME280;51310;52.198;5.422;2022-07-23T06:29:20;101751.34;;;17.80;74.50
64844;BME280;51310;52.198;5.422;2022-07-23T06:31:45;101759.31;;;17.61;76.77
64844;BME280;51310;52.198;5.422;2022-07-23T06:34:11;101751.72;;;17.95;73.80
64844;BME280;51310;52.198;5.422;2022-07-23T06:36:37;101756.94;;;18.28;72.62
64844;BME280;51310;52.198;5.422;2022-07-23T06:39:03;101755.22;;;17.96;74.12
64844;BME280;51310;52.198;5.422;2022-07-23T06:41:29;101753.66;;;18.30;72.87
64844;BME280;51310;52.198;5.422;2022-07-23T06:43:55;101761.16;;;18.15;71.96
64844;BME280;51310;52.198;5.422;2022-07-23T06:46:20;101763.06;;;17.86;71.94
64844;BME280;51310;52.198;5.422;2022-07-23T06:48:47;101761.25;;;17.74;70.47
64844;BME280;51310;52.198;5.422;2022-07-23T06:51:13;101767.41;;;17.65;71.72
64844;BME280;51310;52.198;5.422;2022-07-23T06:53:38;101763.63;;;17.51;74.79
64844;BME280;51310;52.198;5.422;2022-07-23T06:56:04;101768.69;;;17.49;75.46
64844;BME280;51310;52.198;5.422;2022-07-23T06:58:30;101769.63;;;17.39;76.40
64844;BME280;51310;52.198;5.422;2022-07-23T07:00:56;101778.09;;;17.27;78.79
64844;BME280;51310;52.198;5.422;2022-07-23T07:03:22;101778.34;;;17.50;76.29
64844;BME280;51310;52.198;5.422;2022-07-23T07:05:48;101774.94;;;17.51;76.39
64844;BME280;51310;52.198;5.422;2022-07-23T07:08:15;101781.88;;;17.30;77.58
64844;BME280;51310;52.198;5.422;2022-07-23T07:10:41;101776.41;;;17.48;74.83
64844;BME280;51310;52.198;5.422;2022-07-23T07:13:07;101780.19;;;17.31;76.96
64844;BME280;51310;52.198;5.422;2022-07-23T07:15:33;101781.09;;;17.41;76.38
64844;BME280;51310;52.198;5.422;2022-07-23T07:17:58;101786.16;;;17.40;77.84
64844;BME280;51310;52.198;5.422;2022-07-23T07:20:24;101783.78;;;17.53;77.86
64844;BME280;51310;52.198;5.422;2022-07-23T07:22:50;101787.19;;;17.62;79.79
64844;BME280;51310;52.198;5.422;2022-07-23T07:25:16;101778.44;;;17.82;76.47
64844;BME280;51310;52.198;5.422;2022-07-23T07:27:42;101788.06;;;17.83;75.66
64844;BME280;51310;52.198;5.422;2022-07-23T07:30:10;101779.91;;;18.11;71.67
64844;BME280;51310;52.198;5.422;2022-07-23T07:32:36;101787.16;;;17.93;73.29
64844;BME280;51310;52.198;5.422;2022-07-23T07:35:04;101795.91;;;17.42;74.88
64844;BME280;51310;52.198;5.422;2022-07-23T07:37:30;101800.59;;;17.36;74.21
64844;BME280;51310;52.198;5.422;2022-07-23T07:39:56;101792.50;;;17.74;74.24
64844;BME280;51310;52.198;5.422;2022-07-23T07:42:22;101794.31;;;17.86;74.83
64844;BME280;51310;52.198;5.422;2022-07-23T07:44:47;101794.06;;;17.93;71.48
64844;BME280;51310;52.198;5.422;2022-07-23T07:47:13;101800.53;;;17.77;73.67
64844;BME280;51310;52.198;5.422;2022-07-23T07:49:42;101798.38;;;17.72;75.67
64844;BME280;51310;52.198;5.422;2022-07-23T07:52:09;101806.94;;;17.71;74.05
64844;BME280;51310;52.198;5.422;2022-07-23T07:54:36;101808.00;;;17.93;72.71
64844;BME280;51310;52.198;5.422;2022-07-23T07:57:02;101808.25;;;17.76;73.16
64844;BME280;51310;52.198;5.422;2022-07-23T07:59:28;101810.88;;;17.55;74.45
64844;BME280;51310;52.198;5.422;2022-07-23T08:01:54;101804.63;;;17.63;75.67
64844;BME280;51310;52.198;5.422;2022-07-23T08:04:21;101810.63;;;17.62;75.46
64844;BME280;51310;52.198;5.422;2022-07-23T08:06:46;101811.00;;;17.67;74.89
64844;BME280;51310;52.198;5.422;2022-07-23T08:09:12;101820.84;;;17.81;74.58
64844;BME280;51310;52.198;5.422;2022-07-23T08:11:38;101818.91;;;17.99;73.92
64844;BME280;51310;52.198;5.422;2022-07-23T08:14:04;101812.00;;;18.00;73.51
64844;BME280;51310;52.198;5.422;2022-07-23T08:16:30;101810.75;;;17.85;74.85
64844;BME280;51310;52.198;5.422;2022-07-23T08:18:56;101812.81;;;17.68;74.80
64844;BME280;51310;52.198;5.422;2022-07-23T08:21:21;101811.25;;;17.91;74.54
64844;BME280;51310;52.198;5.422;2022-07-23T08:23:47;101819.97;;;18.01;72.46
64844;BME280;51310;52.198;5.422;2022-07-23T08:26:13;101821.38;;;17.77;74.67
64844;BME280;51310;52.198;5.422;2022-07-23T08:28:39;101815.81;;;17.93;74.57
64844;BME280;51310;52.198;5.422;2022-07-23T08:31:05;101818.59;;;18.17;71.60
64844;BME280;51310;52.198;5.422;2022-07-23T08:33:31;101820.25;;;17.84;74.48
64844;BME280;51310;52.198;5.422;2022-07-23T08:35:58;101818.78;;;17.98;72.87
64844;BME280;51310;52.198;5.422;2022-07-23T08:38:24;101821.06;;;18.15;71.68
64844;BME280;51310;52.198;5.422;2022-07-23T08:40:54;101825.56;;;17.96;72.17
64844;BME280;51310;52.198;5.422;2022-07-23T08:43:24;101822.06;;;17.85;73.04
64844;BME280;51310;52.198;5.422;2022-07-23T08:45:59;101819.31;;;17.83;72.79
64844;BME280;51310;52.198;5.422;2022-07-23T08:48:30;101819.53;;;17.97;73.30
64844;BME280;51310;52.198;5.422;2022-07-23T08:51:04;101809.97;;;18.18;71.73
64844;BME280;51310;52.198;5.422;2022-07-23T08:53:31;101817.84;;;18.40;71.67
64844;BME280;51310;52.198;5.422;2022-07-23T08:56:01;101822.53;;;18.44;69.52
64844;BME280;51310;52.198;5.422;2022-07-23T08:58:29;101821.63;;;18.65;70.22
64844;BME280;51310;52.198;5.422;2022-07-23T09:00:56;101819.84;;;18.64;69.83
64844;BME280;51310;52.198;5.422;2022-07-23T09:03:29;101820.53;;;18.84;68.30
64844;BME280;51310;52.198;5.422;2022-07-23T09:06:00;101819.13;;;18.77;67.42
64844;BME280;51310;52.198;5.422;2022-07-23T09:08:37;101825.03;;;18.42;69.73
64844;BME280;51310;52.198;5.422;2022-07-23T09:11:10;101821.44;;;18.52;69.18
64844;BME280;51310;52.198;5.422;2022-07-23T09:13:50;101821.25;;;18.39;68.84
64844;BME280;51310;52.198;5.422;2022-07-23T09:16:30;101827.69;;;18.54;68.89
64844;BME280;51310;52.198;5.422;2022-07-23T09:18:59;101828.31;;;18.62;67.71
64844;BME280;51310;52.198;5.422;2022-07-23T09:21:32;101820.66;;;18.85;67.12
64844;BME280;51310;52.198;5.422;2022-07-23T09:24:07;101826.72;;;18.96;67.51
64844;BME280;51310;52.198;5.422;2022-07-23T09:26:36;101822.03;;;19.14;68.47
64844;BME280;51310;52.198;5.422;2022-07-23T09:29:21;101825.91;;;19.19;65.34
64844;BME280;51310;52.198;5.422;2022-07-23T09:32:01;101831.50;;;18.80;67.29
64844;BME280;51310;52.198;5.422;2022-07-23T09:34:36;101831.56;;;19.14;65.33
64844;BME280;51310;52.198;5.422;2022-07-23T09:37:23;101829.56;;;18.99;65.56
64844;BME280;51310;52.198;5.422;2022-07-23T09:39:49;101828.66;;;19.33;63.57
64844;BME280;51310;52.198;5.422;2022-07-23T09:42:25;101833.91;;;19.11;64.62
64844;BME280;51310;52.198;5.422;2022-07-23T09:44:56;101829.88;;;18.92;64.33
64844;BME280;51310;52.198;5.422;2022-07-23T09:47:26;101835.28;;;18.83;66.22
64844;BME280;51310;52.198;5.422;2022-07-23T09:50:09;101832.94;;;18.98;64.67
64844;BME280;51310;52.198;5.422;2022-07-23T09:52:48;101835.47;;;18.97;64.40
64844;BME280;51310;52.198;5.422;2022-07-23T09:55:16;101825.16;;;19.32;63.16
64844;BME280;51310;52.198;5.422;2022-07-23T09:57:44;101834.69;;;19.32;63.15
64844;BME280;51310;52.198;5.422;2022-07-23T10:00:13;101838.13;;;19.54;63.40
64844;BME280;51310;52.198;5.422;2022-07-23T10:02:39;101832.28;;;19.57;63.30
64844;BME280;51310;52.198;5.422;2022-07-23T10:05:07;101836.41;;;19.43;63.41
64844;BME280;51310;52.198;5.422;2022-07-23T10:07:37;101839.13;;;19.78;61.69
64844;BME280;51310;52.198;5.422;2022-07-23T10:10:05;101834.28;;;19.61;62.29
64844;BME280;51310;52.198;5.422;2022-07-23T10:12:32;101834.72;;;20.01;61.05
64844;BME280;51310;52.198;5.422;2022-07-23T10:15:13;101834.28;;;20.06;60.61
64844;BME280;51310;52.198;5.422;2022-07-23T10:17:39;101825.28;;;19.91;60.43
64844;BME280;51310;52.198;5.422;2022-07-23T10:20:06;101833.72;;;19.87;62.77
64844;BME280;51310;52.198;5.422;2022-07-23T10:22:44;101822.94;;;19.60;61.53
64844;BME280;51310;52.198;5.422;2022-07-23T10:25:35;101824.84;;;19.85;59.67
64844;BME280;51310;52.198;5.422;2022-07-23T10:28:46;101821.31;;;19.84;60.40
64844;BME280;51310;52.198;5.422;2022-07-23T10:31:47;101826.69;;;19.98;60.91
64844;BME280;51310;52.198;5.422;2022-07-23T10:34:47;101833.03;;;19.90;62.37
64844;BME280;51310;52.198;5.422;2022-07-23T10:37:31;101830.88;;;19.96;61.52
64844;BME280;51310;52.198;5.422;2022-07-23T10:40:21;101830.44;;;20.13;60.20
64844;BME280;51310;52.198;5.422;2022-07-23T10:42:51;101827.31;;;20.42;58.65
64844;BME280;51310;52.198;5.422;2022-07-23T10:45:35;101823.38;;;20.24;57.75
64844;BME280;51310;52.198;5.422;2022-07-23T10:48:14;101824.81;;;20.32;59.82
64844;BME280;51310;52.198;5.422;2022-07-23T10:51:16;101822.19;;;20.44;58.08
64844;BME280;51310;52.198;5.422;2022-07-23T10:59:20;101820.28;;;20.65;58.93
64844;BME280;51310;52.198;5.422;2022-07-23T11:01:46;101817.53;;;20.63;54.57
64844;BME280;51310;52.198;5.422;2022-07-23T11:04:13;101821.63;;;20.72;54.71
64844;BME280;51310;52.198;5.422;2022-07-23T11:09:38;101821.63;;;20.60;56.79
64844;BME280;51310;52.198;5.422;2022-07-23T11:17:33;101822.75;;;21.00;55.15
64844;BME280;51310;52.198;5.422;2022-07-23T11:28:16;101817.88;;;21.18;54.90
64844;BME280;51310;52.198;5.422;2022-07-23T11:30:46;101810.31;;;21.35;54.42
64844;BME280;51310;52.198;5.422;2022-07-23T11:35:43;101798.00;;;21.72;54.80
64844;BME280;51310;52.198;5.422;2022-07-23T11:38:19;101815.03;;;21.79;54.77
64844;BME280;51310;52.198;5.422;2022-07-23T11:40:54;101814.63;;;21.73;54.27
64844;BME280;51310;52.198;5.422;2022-07-23T11:43:23;101814.75;;;21.74;54.83
64844;BME280;51310;52.198;5.422;2022-07-23T11:45:54;101816.88;;;21.66;54.20
64844;BME280;51310;52.198;5.422;2022-07-23T11:48:30;101818.25;;;21.61;53.30
64844;BME280;51310;52.198;5.422;2022-07-23T11:50:57;101807.63;;;21.46;54.60
64844;BME280;51310;52.198;5.422;2022-07-23T11:53:28;101824.75;;;21.41;55.81
64844;BME280;51310;52.198;5.422;2022-07-23T11:56:07;101816.41;;;21.47;56.35
64844;BME280;51310;52.198;5.422;2022-07-23T11:58:37;101820.16;;;21.64;53.91
64844;BME280;51310;52.198;5.422;2022-07-23T12:01:04;101813.25;;;21.78;52.38
64844;BME280;51310;52.198;5.422;2022-07-23T12:03:30;101807.69;;;22.00;53.57
64844;BME280;51310;52.198;5.422;2022-07-23T12:05:59;101819.50;;;22.20;54.92
64844;BME280;51310;52.198;5.422;2022-07-23T12:08:25;101812.34;;;21.77;55.74
64844;BME280;51310;52.198;5.422;2022-07-23T12:10:51;101805.06;;;21.60;55.71
64844;BME280;51310;52.198;5.422;2022-07-23T12:13:19;101814.06;;;21.13;55.76
64844;BME280;51310;52.198;5.422;2022-07-23T12:15:53;101801.47;;;20.71;57.41
64844;BME280;51310;52.198;5.422;2022-07-23T12:18:25;101812.97;;;20.98;58.31
64844;BME280;51310;52.198;5.422;2022-07-23T12:20:55;101812.09;;;21.36;57.20
64844;BME280;51310;52.198;5.422;2022-07-23T12:23:25;101806.03;;;21.48;55.81
64844;BME280;51310;52.198;5.422;2022-07-23T12:25:53;101797.47;;;21.51;56.45
64844;BME280;51310;52.198;5.422;2022-07-23T12:28:29;101790.84;;;21.83;54.89
64844;BME280;51310;52.198;5.422;2022-07-23T12:30:59;101793.88;;;21.89;56.27
64844;BME280;51310;52.198;5.422;2022-07-23T12:33:35;101787.94;;;21.91;55.75
64844;BME280;51310;52.198;5.422;2022-07-23T12:36:07;101779.16;;;21.78;55.22
64844;BME280;51310;52.198;5.422;2022-07-23T12:38:46;101782.88;;;21.55;56.85
64844;BME280;51310;52.198;5.422;2022-07-23T12:41:14;101781.16;;;21.55;55.82
64844;BME280;51310;52.198;5.422;2022-07-23T12:43:43;101786.09;;;21.64;56.42
64844;BME280;51310;52.198;5.422;2022-07-23T12:46:18;101778.56;;;21.82;55.43
64844;BME280;51310;52.198;5.422;2022-07-23T12:51:28;101780.06;;;22.45;53.78
64844;BME280;51310;52.198;5.422;2022-07-23T12:54:09;101779.63;;;22.52;54.79
64844;BME280;51310;52.198;5.422;2022-07-23T12:56:39;101787.13;;;22.32;54.40
64844;BME280;51310;52.198;5.422;2022-07-23T12:59:09;101781.63;;;22.56;53.96
64844;BME280;51310;52.198;5.422;2022-07-23T13:01:42;101783.91;;;22.37;53.67
64844;BME280;51310;52.198;5.422;2022-07-23T13:04:17;101773.09;;;21.92;53.59
64844;BME280;51310;52.198;5.422;2022-07-23T13:06:53;101774.81;;;21.91;55.38
64844;BME280;51310;52.198;5.422;2022-07-23T13:09:24;101777.97;;;22.26;55.35
64844;BME280;51310;52.198;5.422;2022-07-23T13:11:53;101778.44;;;22.47;52.92
64844;BME280;51310;52.198;5.422;2022-07-23T13:14:21;101789.72;;;22.46;53.29
64844;BME280;51310;52.198;5.422;2022-07-23T13:16:49;101776.44;;;22.71;52.71
64844;BME280;51310;52.198;5.422;2022-07-23T13:19:16;101774.53;;;22.68;54.15